Disclaimer

Please do not use the information listed here in-flight or in-navigation, as they are not provided to us by the airports but are provided by volunteers, so they might be outdated.

Search


Regions


Airport information page

Radio informations:
Tower (TWR) - 118.3 MHz
BARRANQUILLA APP - 119.1 MHz

Airport informations:
Latitude: 10° 26' 32.57" N
Longitude: 075° 30' 46.66" W
Elevation: 4 feet - 1 meters
Operating hours: N/A
Operating agency: Military-civil joint use airport
Timezone: UTC-5
Fuel: Jet A1, without icing nhibitor.

100/130 MIL Spec, low lead, aviation gasoline (BLUE)

Runway information:
01/19 - 8530 x 148 feet< - >2600 x 45 meters

Recent METARs:
SKCG 190700Z 00000KT 9999 FEW012 SCT200 27/26 A2974
SKCG 190800Z 01003KT 9999 FEW009 SCT200 27/26 A2971
SKCG 190800Z 01003KT 9999 FEW009 SCT200 27/26 A2971

Airport on the map: